Time;durP1;ratioP1;P1;durP2;ratioP2;P2;SDS_P1;SDS_P2;PMS_P1;PMS_P2;Temp;Humidity;BMP_temperature;BMP_pressure;BME280_temperature;BME280_humidity;BME280_pressure;Samples;Min_cycle;Max_cycle;Signal;HPM_P1;HPM_P2
2023/10/10 00:00:49;;;;;;;1.73;0.50;;;;;;;20.83;70.85;100816.53;4970812;28;20463;-48
2023/10/10 00:03:18;;;;;;;2.45;0.77;;;;;;;20.87;71.08;100822.22;4953826;28;20070;-48
2023/10/10 00:05:44;;;;;;;1.13;0.73;;;;;;;20.81;71.05;100815.16;4953798;28;20032;-48
2023/10/10 00:08:11;;;;;;;1.98;0.70;;;;;;;20.77;71.15;100812.19;4954157;28;20163;-48
2023/10/10 00:10:45;;;;;;;3.03;1.10;;;;;;;20.75;71.84;100808.91;4998741;28;20035;-46
2023/10/10 00:13:12;;;;;;;2.80;1.00;;;;;;;20.81;71.59;100810.53;4970395;28;20027;-49
2023/10/10 00:15:49;;;;;;;3.55;1.20;;;;;;;20.93;71.20;100806.69;4960797;28;20034;-51
2023/10/10 00:18:21;;;;;;;1.35;1.10;;;;;;;20.80;71.80;100794.50;4973068;28;20038;-50
2023/10/10 00:21:06;;;;;;;1.73;1.10;;;;;;;20.78;71.80;100791.25;4971698;28;20059;-48
2023/10/10 00:23:47;;;;;;;2.72;1.30;;;;;;;20.77;71.56;100789.63;4972844;28;20030;-46
2023/10/10 00:26:22;;;;;;;2.05;0.80;;;;;;;20.80;71.27;100781.69;4969573;28;20061;-46
2023/10/10 00:28:55;;;;;;;2.72;1.20;;;;;;;20.83;71.78;100786.59;4971954;28;20031;-46
2023/10/10 00:31:26;;;;;;;0.90;0.73;;;;;;;20.90;71.29;100774.63;4972668;28;20026;-49
2023/10/10 00:33:54;;;;;;;2.47;0.70;;;;;;;20.81;71.24;100775.16;4972095;28;20030;-52
2023/10/10 00:36:22;;;;;;;2.85;1.00;;;;;;;20.88;70.80;100782.25;4972307;28;20611;-49
2023/10/10 00:38:58;;;;;;;4.95;1.08;;;;;;;20.79;71.00;100793.69;4972244;28;20484;-50
2023/10/10 00:41:26;;;;;;;3.67;0.93;;;;;;;20.90;70.21;100794.47;4993416;23;20107;-51
2023/10/10 00:43:53;;;;;;;2.75;1.13;;;;;;;20.94;70.39;100792.84;5006644;28;20128;-54
2023/10/10 00:46:28;;;;;;;3.30;0.93;;;;;;;20.85;71.39;100797.19;5009711;28;20109;-56
2023/10/10 00:48:59;;;;;;;2.08;0.85;;;;;;;20.81;71.40;100794.22;5010377;28;20136;-55
2023/10/10 00:51:33;;;;;;;1.90;0.73;;;;;;;20.73;72.38;100800.22;5001349;28;20030;-55
2023/10/10 00:56:45;;;;;;;1.02;0.57;;;;;;;20.89;72.64;100789.31;4992653;28;20108;-55
2023/10/10 00:59:16;;;;;;;1.67;0.70;;;;;;;20.86;72.56;100785.22;4992037;28;20034;-55
2023/10/10 01:01:43;;;;;;;1.63;0.63;;;;;;;20.75;73.08;100787.16;4992340;28;20034;-55
2023/10/10 01:04:11;;;;;;;1.02;0.82;;;;;;;20.80;73.52;100786.34;5006761;28;20076;-55
2023/10/10 01:06:39;;;;;;;2.72;0.82;;;;;;;20.59;73.86;100790.16;4992484;28;20061;-56
2023/10/10 01:11:43;;;;;;;2.45;0.93;;;;;;;20.46;73.79;100791.53;5011438;28;20076;-55
2023/10/10 01:14:14;;;;;;;1.40;0.57;;;;;;;20.43;73.93;100792.88;5011494;28;20030;-56
2023/10/10 01:16:40;;;;;;;2.20;0.60;;;;;;;20.21;75.55;100790.44;5012219;28;20455;-55
2023/10/10 01:19:08;;;;;;;0.65;0.60;;;;;;;20.13;76.12;100787.44;5013181;28;20482;-56
2023/10/10 01:21:43;;;;;;;1.35;0.70;;;;;;;20.03;76.75;100786.34;5015647;28;20046;-56
2023/10/10 01:24:15;;;;;;;9.00;1.00;;;;;;;19.76;78.11;100780.31;5015505;28;20088;-57
2023/10/10 01:26:45;;;;;;;3.17;1.00;;;;;;;19.76;79.12;100783.03;5013147;28;20069;-57
2023/10/10 01:31:48;;;;;;;1.48;0.90;;;;;;;19.46;81.31;100783.75;5014805;28;20025;-56
2023/10/10 01:34:30;;;;;;;1.20;1.10;;;;;;;19.41;81.32;100775.56;5006848;28;20033;-56
2023/10/10 01:39:47;;;;;;;;;;;;;;;19.19;83.84;100773.84;5004572;28;20501;-56
2023/10/10 01:42:16;;;;;;;2.03;1.05;;;;;;;19.25;83.59;100778.22;5007852;28;20412;-57
2023/10/10 01:44:43;;;;;;;2.08;1.10;;;;;;;19.10;84.77;100777.34;5015291;28;20033;-56
2023/10/10 01:47:34;;;;;;;1.63;0.90;;;;;;;19.07;84.87;100777.88;5015268;28;20029;-57
2023/10/10 01:50:10;;;;;;;2.63;1.45;;;;;;;18.93;86.49;100782.94;5014830;28;20033;-57
2023/10/10 01:52:38;;;;;;;2.38;1.58;;;;;;;18.66;88.13;100767.59;5015159;28;20072;-56
2023/10/10 01:55:06;;;;;;;2.63;1.50;;;;;;;18.89;87.24;100773.72;5014962;28;20060;-56
2023/10/10 01:57:32;;;;;;;3.10;1.27;;;;;;;18.76;87.56;100771.47;5015211;28;20029;-57
2023/10/10 02:00:05;;;;;;;2.80;1.60;;;;;;;18.81;87.77;100768.78;5014925;28;20032;-56
2023/10/10 02:02:34;;;;;;;2.25;1.35;;;;;;;18.66;88.40;100772.19;5015107;28;20038;-56
2023/10/10 02:05:03;;;;;;;3.75;1.10;;;;;;;18.69;88.56;100775.22;5014840;28;20059;-56
2023/10/10 02:07:31;;;;;;;2.13;1.40;;;;;;;18.62;89.03;100780.03;5015165;28;20052;-57
2023/10/10 02:10:18;;;;;;;2.58;1.25;;;;;;;18.80;87.62;100778.81;5014449;28;20382;-56
2023/10/10 02:12:45;;;;;;;3.45;1.23;;;;;;;18.87;87.47;100778.56;5002938;28;20076;-56
2023/10/10 02:15:13;;;;;;;3.22;1.50;;;;;;;18.65;88.81;100781.38;4997167;28;20062;-56
2023/10/10 02:17:42;;;;;;;1.85;1.20;;;;;;;18.66;88.53;100786.56;4994911;28;20026;-55
2023/10/10 02:23:01;;;;;;;3.65;1.13;;;;;;;18.67;88.42;100788.22;4994878;28;20030;-55
2023/10/10 02:27:55;;;;;;;2.08;1.30;;;;;;;18.52;89.69;100796.22;5014228;28;20025;-56
2023/10/10 02:30:35;;;;;;;2.40;1.33;;;;;;;18.65;89.06;100789.53;4998366;28;20034;-55
2023/10/10 02:35:56;;;;;;;2.00;1.15;;;;;;;18.63;88.92;100797.91;5013949;28;20022;-56
2023/10/10 02:38:34;;;;;;;1.50;1.30;;;;;;;18.64;89.12;100788.72;5013785;28;20030;-55
2023/10/10 02:46:38;;;;;;;2.00;1.63;;;;;;;18.71;89.15;100821.03;5014334;28;20137;-56
2023/10/10 02:51:55;;;;;;;3.38;2.10;;;;;;;18.73;89.55;100819.72;5013910;28;20026;-55
2023/10/10 02:54:33;;;;;;;1.92;1.60;;;;;;;18.71;89.22;100813.75;5013709;28;20045;-55
2023/10/10 03:00:34;;;;;;;1.70;1.50;;;;;;;18.78;89.13;100820.84;5013675;28;20084;-56
2023/10/10 03:02:49;;;;;;;2.70;1.75;;;;;;;18.72;88.75;100822.69;4988285;28;20050;-55
2023/10/10 03:05:17;;;;;;;2.38;1.80;;;;;;;18.82;88.06;100830.91;4995030;28;20030;-55
2023/10/10 03:07:51;;;;;;;3.80;1.63;;;;;;;18.71;88.28;100832.72;5004952;28;20093;-55
2023/10/10 03:10:38;;;;;;;2.53;1.30;;;;;;;18.79;88.25;100827.88;5013620;28;20034;-55
2023/10/10 03:13:13;;;;;;;1.95;1.50;;;;;;;18.83;88.02;100824.41;4993882;28;20038;-55
2023/10/10 03:15:49;;;;;;;2.45;1.40;;;;;;;18.71;88.18;100816.47;4993629;28;20026;-56
2023/10/10 03:18:19;;;;;;;3.58;1.65;;;;;;;18.94;88.16;100822.56;4993645;28;20027;-55
2023/10/10 03:20:51;;;;;;;3.58;1.25;;;;;;;18.76;88.62;100818.38;4993453;28;20034;-56
2023/10/10 03:23:32;;;;;;;5.18;1.85;;;;;;;18.71;89.53;100830.03;4999193;28;20031;-55
2023/10/10 03:26:05;;;;;;;2.60;1.85;;;;;;;18.73;89.36;100827.84;5013570;28;20034;-56
2023/10/10 03:28:41;;;;;;;2.72;1.60;;;;;;;18.73;89.44;100836.00;5012762;28;20080;-56
2023/10/10 03:33:44;;;;;;;3.53;1.35;;;;;;;18.72;89.37;100828.94;5023392;28;20558;-55
2023/10/10 05:25:59;;;;;;;0.80;0.30;;;;;;;18.49;93.50;100867.22;4996432;28;20565;-57
2023/10/10 05:28:30;;;;;;;0.32;0.30;;;;;;;18.54;93.20;100869.13;4995401;28;20386;-57
2023/10/10 05:30:57;;;;;;;0.47;0.40;;;;;;;18.62;92.77;100871.38;4995780;28;20112;-57
2023/10/10 05:33:26;;;;;;;0.40;0.40;;;;;;;18.53;92.64;100879.16;4995778;28;20026;-57
2023/10/10 05:35:58;;;;;;;0.88;0.43;;;;;;;18.53;92.50;100884.56;4995836;28;20045;-57
2023/10/10 05:38:25;;;;;;;1.20;0.90;;;;;;;18.48;91.96;100877.22;4995252;28;20034;-57
2023/10/10 05:40:51;;;;;;;1.42;1.30;;;;;;;18.46;92.42;100876.66;4995318;28;20073;-57
2023/10/10 05:43:25;;;;;;;1.55;1.45;;;;;;;18.55;92.03;100874.31;4995292;28;20493;-57
2023/10/10 05:45:53;;;;;;;2.33;2.13;;;;;;;18.48;91.49;100870.97;4995688;28;20050;-57
2023/10/10 05:48:20;;;;;;;3.00;2.20;;;;;;;18.55;91.35;100866.19;4994828;28;20038;-57
2023/10/10 05:50:48;;;;;;;1.60;1.50;;;;;;;18.58;90.85;100865.66;4995462;28;20023;-57
2023/10/10 05:53:16;;;;;;;2.55;2.35;;;;;;;18.56;90.70;100862.41;4995335;28;20083;-56
2023/10/10 05:55:43;;;;;;;2.60;1.83;;;;;;;18.67;90.98;100856.00;4995365;28;20114;-56
2023/10/10 05:58:11;;;;;;;1.98;1.80;;;;;;;18.68;90.53;100860.34;4994753;28;20042;-57
2023/10/10 06:00:37;;;;;;;4.68;3.72;;;;;;;18.65;90.88;100857.28;4995159;28;20043;-56
2023/10/10 06:03:07;;;;;;;5.55;4.50;;;;;;;18.65;90.63;100863.53;4994914;28;20033;-55
2023/10/10 06:05:34;;;;;;;5.22;4.07;;;;;;;18.53;90.91;100854.75;4994041;28;20076;-55
2023/10/10 06:08:01;;;;;;;2.45;2.25;;;;;;;18.48;91.41;100857.44;4994835;28;20077;-52
2023/10/10 06:10:34;;;;;;;2.17;1.83;;;;;;;18.53;91.16;100852.06;4994888;28;20022;-55
2023/10/10 06:13:06;;;;;;;2.30;2.10;;;;;;;18.52;91.12;100845.00;4994790;28;20041;-55
2023/10/10 06:15:34;;;;;;;1.58;1.30;;;;;;;18.66;90.33;100843.50;4994907;28;20081;-56
2023/10/10 06:18:34;;;;;;;1.33;1.23;;;;;;;18.59;90.30;100832.03;4994732;28;20057;-56
2023/10/10 06:20:55;;;;;;;0.63;0.60;;;;;;;18.48;90.66;100838.47;4990872;28;20046;-56
2023/10/10 06:23:21;;;;;;;0.47;0.40;;;;;;;18.56;90.23;100835.28;4994566;28;20383;-56
2023/10/10 06:25:48;;;;;;;0.57;0.35;;;;;;;18.63;89.99;100826.94;4994753;28;20026;-55
2023/10/10 06:28:25;;;;;;;0.60;0.60;;;;;;;18.61;90.03;100826.38;4994537;28;20427;-53
2023/10/10 06:30:53;;;;;;;0.63;0.40;;;;;;;18.43;90.89;100814.88;4994512;28;20030;-54
2023/10/10 06:33:29;;;;;;;0.35;0.35;;;;;;;18.57;89.64;100820.66;5012118;28;20082;-53
2023/10/10 06:41:54;;;;;;;;;;;;;;;18.42;91.28;100817.81;5014484;28;20072;-53
2023/10/10 06:44:40;;;;;;;0.50;0.50;;;;;;;18.38;90.56;100808.59;5013322;28;19918;-54
2023/10/10 06:47:10;;;;;;;0.40;0.40;;;;;;;18.41;90.53;100818.91;5013972;28;20026;-54
2023/10/10 06:49:55;;;;;;;0.38;0.38;;;;;;;18.43;90.87;100824.84;5013533;28;20051;-55
2023/10/10 06:52:23;;;;;;;0.77;0.77;;;;;;;18.37;91.51;100821.28;5013739;28;20113;-54
2023/10/10 06:54:56;;;;;;;0.68;0.68;;;;;;;18.39;91.17;100818.34;5013561;28;20482;-55
2023/10/10 06:57:35;;;;;;;0.77;0.70;;;;;;;18.48;91.37;100820.31;5008511;28;20049;-55
2023/10/10 07:00:27;;;;;;;0.35;0.32;;;;;;;18.56;91.10;100827.16;4994123;28;20501;-55
2023/10/10 07:02:55;;;;;;;0.40;0.38;;;;;;;18.47;91.43;100824.09;4994073;28;20477;-55
2023/10/10 07:05:26;;;;;;;0.40;0.32;;;;;;;18.43;91.60;100819.44;4994311;28;20105;-55
2023/10/10 07:07:59;;;;;;;0.20;0.20;;;;;;;18.36;91.57;100818.84;4993843;28;20032;-55
2023/10/10 07:10:33;;;;;;;0.63;0.40;;;;;;;18.39;91.55;100821.88;4993704;28;20033;-56
2023/10/10 07:13:00;;;;;;;0.65;0.60;;;;;;;18.22;92.56;100820.38;4993798;28;20030;-56
2023/10/10 07:15:33;;;;;;;0.50;0.35;;;;;;;18.27;92.47;100826.66;4993574;28;20137;-55
2023/10/10 07:18:13;;;;;;;0.20;0.20;;;;;;;18.31;91.84;100821.50;4993723;28;20478;-55
2023/10/10 07:23:38;;;;;;;0.28;0.28;;;;;;;18.27;91.02;100823.13;4993850;28;20069;-55
2023/10/10 07:26:19;;;;;;;0.73;0.20;;;;;;;18.22;91.16;100823.88;4993620;28;20022;-52
2023/10/10 07:28:49;;;;;;;0.30;0.30;;;;;;;18.14;91.03;100824.34;4993443;28;20453;-55
2023/10/10 07:31:20;;;;;;;0.20;0.20;;;;;;;18.13;91.41;100822.72;4992975;28;20023;-55
2023/10/10 07:34:15;;;;;;;0.20;0.20;;;;;;;18.18;91.36;100823.56;4993412;28;20030;-55
2023/10/10 07:36:43;;;;;;;0.35;0.28;;;;;;;18.14;91.51;100819.75;4993426;28;20026;-54
2023/10/10 07:41:57;;;;;;;0.30;0.30;;;;;;;18.21;91.19;100824.94;4993342;28;20061;-55
2023/10/10 07:44:23;;;;;;;0.70;0.30;;;;;;;18.14;91.77;100811.59;4993228;28;20509;-55
2023/10/10 07:49:34;;;;;;;0.30;0.30;;;;;;;18.34;91.11;100808.28;4993308;28;20069;-55
2023/10/10 07:52:04;;;;;;;0.30;0.30;;;;;;;18.34;91.04;100802.84;4993011;28;20042;-55
2023/10/10 07:54:39;;;;;;;0.20;0.20;;;;;;;18.31;91.22;100803.34;4993312;28;20041;-55
2023/10/10 07:57:11;;;;;;;0.50;0.40;;;;;;;18.34;90.98;100793.91;4993296;28;20399;-55
2023/10/10 07:59:37;;;;;;;0.30;0.30;;;;;;;18.44;91.04;100802.13;4992648;28;20023;-56
2023/10/10 08:04:51;;;;;;;0.40;0.40;;;;;;;18.50;90.52;100808.41;4993222;28;20041;-54
2023/10/10 08:07:22;;;;;;;0.60;0.60;;;;;;;18.38;91.25;100811.28;4993053;28;20322;-53
2023/10/10 08:09:49;;;;;;;0.57;0.57;;;;;;;18.38;90.71;100809.41;4992637;28;20032;-52
2023/10/10 08:12:16;;;;;;;0.52;0.52;;;;;;;18.37;90.97;100815.06;4992670;28;20558;-55
2023/10/10 08:14:43;;;;;;;0.52;0.52;;;;;;;18.38;91.16;100811.28;4992659;28;20026;-55
2023/10/10 08:17:25;;;;;;;0.70;0.60;;;;;;;18.40;91.03;100809.13;4992690;28;20030;-55
2023/10/10 08:19:53;;;;;;;0.50;0.50;;;;;;;18.43;91.04;100803.19;4992642;28;20030;-55
2023/10/10 08:22:30;;;;;;;0.57;0.57;;;;;;;18.47;90.58;100810.53;4992422;28;20071;-55
2023/10/10 08:24:56;;;;;;;0.73;0.65;;;;;;;18.55;90.35;100797.59;4992093;28;20030;-55
2023/10/10 08:27:26;;;;;;;0.60;0.60;;;;;;;18.64;89.76;100794.13;4994513;28;20081;-55
2023/10/10 08:29:52;;;;;;;0.65;0.65;;;;;;;18.53;90.08;100794.31;5011979;28;20482;-55
2023/10/10 08:32:18;;;;;;;0.60;0.60;;;;;;;18.41;90.35;100791.78;5011987;28;20073;-55
2023/10/10 08:34:44;;;;;;;0.30;0.30;;;;;;;18.41;90.39;100792.59;5012049;28;20117;-55
2023/10/10 08:37:15;;;;;;;0.30;0.30;;;;;;;18.32;90.72;100791.47;5001082;28;20085;-55
2023/10/10 08:39:41;;;;;;;0.30;0.30;;;;;;;18.46;90.58;100797.25;5005747;28;20088;-55
2023/10/10 08:42:14;;;;;;;0.30;0.30;;;;;;;18.43;90.43;100795.91;5010508;28;20061;-55
2023/10/10 08:44:41;;;;;;;0.50;0.40;;;;;;;18.38;90.43;100793.16;5010121;28;20698;-55
2023/10/10 08:47:16;;;;;;;0.88;0.40;;;;;;;18.47;90.81;100807.81;4992105;28;20031;-55
2023/10/10 08:49:42;;;;;;;;;;;;;;;18.41;91.01;100800.75;4992029;28;20454;-55
2023/10/10 08:52:09;;;;;;;0.30;0.30;;;;;;;18.48;90.96;100811.34;4992407;28;20298;-56
2023/10/10 08:54:38;;;;;;;0.20;0.20;;;;;;;18.35;91.85;100806.38;4992072;28;20089;-56
2023/10/10 08:57:10;;;;;;;0.45;0.43;;;;;;;18.35;91.50;100809.91;4992495;28;20391;-56
2023/10/10 08:59:42;;;;;;;0.40;0.40;;;;;;;18.33;91.78;100805.84;4992020;28;20026;-56
2023/10/10 09:02:17;;;;;;;0.65;0.30;;;;;;;18.37;91.80;100796.09;4994337;28;20035;-56
2023/10/10 09:04:50;;;;;;;1.65;0.20;;;;;;;18.42;90.75;100798.84;4991750;28;20034;-54
2023/10/10 09:07:30;;;;;;;0.30;0.30;;;;;;;18.41;91.43;100794.50;4991644;28;20022;-55
2023/10/10 09:10:06;;;;;;;0.30;0.20;;;;;;;18.32;92.30;100796.03;4992697;28;20053;-54
2023/10/10 09:15:21;;;;;;;0.30;0.30;;;;;;;18.27;91.86;100780.59;4992183;28;20030;-54
2023/10/10 09:17:48;;;;;;;0.22;0.22;;;;;;;18.23;91.76;100778.66;4991810;28;20026;-55
2023/10/10 09:20:28;;;;;;;0.35;0.30;;;;;;;18.15;92.34;100780.72;4991977;28;20118;-55
2023/10/10 09:23:11;;;;;;;0.22;0.20;;;;;;;18.27;91.96;100787.91;4992181;28;20034;-55
2023/10/10 09:25:48;;;;;;;0.30;0.20;;;;;;;18.28;91.34;100786.81;4991910;28;20594;-55
2023/10/10 09:28:16;;;;;;;0.30;0.30;;;;;;;18.17;91.82;100794.03;4991611;28;20526;-55
2023/10/10 09:30:59;;;;;;;0.22;0.22;;;;;;;18.08;91.92;100790.16;4992012;28;20488;-55
2023/10/10 09:33:33;;;;;;;1.05;0.40;;;;;;;17.97;93.32;100796.56;4992124;28;20030;-54
2023/10/10 09:36:08;;;;;;;0.45;0.40;;;;;;;18.04;92.56;100792.53;4991660;28;20825;-55
2023/10/10 09:38:53;;;;;;;0.47;0.30;;;;;;;17.90;93.69;100791.34;4991970;28;20061;-55
2023/10/10 09:57:58;;;;;;;0.43;0.40;;;;;;;17.80;96.26;100783.13;4995136;28;20829;-55
2023/10/10 10:09:19;;;;;;;0.63;0.57;;;;;;;17.93;95.83;100769.16;4994769;28;20030;-55
2023/10/10 10:11:48;;;;;;;;;;;;;;;17.92;96.38;100773.75;4995208;28;20061;-56
2023/10/10 10:14:38;;;;;;;0.70;0.68;;;;;;;17.90;96.58;100764.25;4994945;28;19913;-56
2023/10/10 10:17:53;;;;;;;0.70;0.63;;;;;;;17.85;97.43;100769.63;4995011;28;20034;-54
2023/10/10 10:20:25;;;;;;;0.40;0.40;;;;;;;17.77;98.08;100761.97;4995020;28;20037;-54
2023/10/10 10:22:54;;;;;;;0.55;0.52;;;;;;;17.74;98.26;100762.47;4994458;28;20113;-55
2023/10/10 10:25:28;;;;;;;0.57;0.57;;;;;;;17.79;98.26;100752.53;4994912;28;20395;-55
2023/10/10 10:28:14;;;;;;;1.08;0.47;;;;;;;17.77;98.22;100759.28;4994795;28;20116;-56
2023/10/10 10:30:51;;;;;;;1.45;0.60;;;;;;;17.71;98.83;100761.06;5008712;28;20033;-56
2023/10/10 10:33:22;;;;;;;0.75;0.40;;;;;;;17.78;98.03;100761.72;5014294;28;20356;-56
2023/10/10 10:35:56;;;;;;;0.50;0.30;;;;;;;17.86;97.35;100769.38;5014114;28;20040;-56
2023/10/10 10:38:26;;;;;;;0.40;0.40;;;;;;;17.72;97.88;100781.69;5013671;28;20071;-55
2023/10/10 10:41:07;;;;;;;0.45;0.30;;;;;;;17.67;98.33;100782.41;5013668;28;20841;-55
2023/10/10 10:43:42;;;;;;;0.45;0.43;;;;;;;17.68;98.48;100777.81;5013887;28;20033;-55
2023/10/10 10:46:27;;;;;;;0.30;0.30;;;;;;;17.71;97.89;100788.13;5013956;28;20041;-55
2023/10/10 10:49:05;;;;;;;0.30;0.30;;;;;;;17.78;97.24;100777.97;5013436;28;20088;-55
2023/10/10 10:51:47;;;;;;;0.40;0.30;;;;;;;17.55;97.45;100775.53;5013682;28;20053;-55
2023/10/10 10:55:18;;;;;;;0.93;0.40;;;;;;;17.61;96.54;100769.09;5013691;28;20036;-54
2023/10/10 10:57:02;;;;;;;0.25;0.25;;;;;;;17.61;96.69;100767.19;4986565;28;20069;-55
2023/10/10 10:59:35;;;;;;;0.47;0.22;;;;;;;17.67;96.31;100766.19;4993849;28;20027;-55
2023/10/10 11:02:13;;;;;;;0.28;0.28;;;;;;;17.66;96.01;100755.63;4994088;28;20033;-56
2023/10/10 11:04:43;;;;;;;0.20;0.20;;;;;;;17.62;96.29;100758.00;4994044;28;20026;-55
2023/10/10 11:07:15;;;;;;;0.38;0.30;;;;;;;17.71;95.46;100763.75;4993580;28;20029;-55
2023/10/10 11:09:52;;;;;;;0.28;0.28;;;;;;;17.62;95.49;100760.72;4993849;28;20026;-53
2023/10/10 11:12:28;;;;;;;0.70;0.40;;;;;;;17.57;96.31;100762.53;4993677;28;20106;-55
2023/10/10 11:14:56;;;;;;;0.70;0.22;;;;;;;17.59;96.28;100755.78;4993587;28;20026;-56
2023/10/10 11:17:22;;;;;;;0.52;0.40;;;;;;;17.55;96.51;100757.41;4993398;28;20129;-56
2023/10/10 11:19:54;;;;;;;0.20;0.20;;;;;;;17.53;96.54;100756.81;4993574;28;20037;-56
2023/10/10 11:22:40;;;;;;;0.30;0.30;;;;;;;17.61;96.47;100767.19;4993348;28;20058;-57
2023/10/10 11:25:11;;;;;;;0.40;0.40;;;;;;;17.57;96.25;100765.25;4994093;28;20026;-56
2023/10/10 11:27:44;;;;;;;0.45;0.20;;;;;;;17.68;95.51;100770.50;4993178;28;20049;-55
2023/10/10 11:30:12;;;;;;;0.30;0.30;;;;;;;17.63;95.45;100765.03;4993296;28;20121;-55
2023/10/10 11:32:46;;;;;;;0.20;0.20;;;;;;;17.69;94.23;100769.44;4993312;28;20101;-55
2023/10/10 11:37:47;;;;;;;1.15;0.40;;;;;;;17.47;94.18;100774.06;4993207;28;20029;-55
2023/10/10 11:40:31;;;;;;;0.25;0.15;;;;;;;17.53;94.56;100773.03;4993314;28;20026;-56
2023/10/10 11:43:05;;;;;;;0.35;0.25;;;;;;;17.54;94.46;100765.75;4993082;28;20470;-56
2023/10/10 11:45:51;;;;;;;0.32;0.10;;;;;;;17.59;94.18;100777.44;4993263;28;20034;-55
2023/10/10 11:48:17;;;;;;;0.47;0.20;;;;;;;17.57;94.07;100773.38;4992954;28;20030;-55
2023/10/10 11:50:45;;;;;;;0.10;0.10;;;;;;;17.56;94.26;100769.84;4993128;28;20037;-52
2023/10/10 11:53:14;;;;;;;0.25;0.20;;;;;;;17.46;94.86;100775.13;4993147;28;20386;-55
2023/10/10 11:55:41;;;;;;;0.10;0.10;;;;;;;17.51;94.62;100779.81;4994985;28;20058;-55
2023/10/10 11:58:35;;;;;;;0.10;0.10;;;;;;;17.53;94.45;100775.75;4992829;28;20077;-55
2023/10/10 12:01:03;;;;;;;0.30;0.10;;;;;;;17.64;93.57;100780.22;4992907;28;20026;-54
2023/10/10 12:06:19;;;;;;;0.30;0.28;;;;;;;17.56;94.33;100777.97;4992884;28;20097;-55
2023/10/10 12:08:53;;;;;;;0.17;0.10;;;;;;;17.58;94.16;100775.00;4992714;28;20081;-54
2023/10/10 12:11:20;;;;;;;0.88;0.20;;;;;;;17.60;94.11;100786.38;4993275;28;20114;-54
2023/10/10 12:13:50;;;;;;;0.32;0.20;;;;;;;17.68;93.46;100785.94;4992867;28;20042;-53
2023/10/10 12:16:18;;;;;;;0.35;0.20;;;;;;;17.63;93.34;100777.75;4992668;28;20026;-54
2023/10/10 12:18:54;;;;;;;0.22;0.20;;;;;;;17.59;94.05;100782.84;4992166;28;20127;-55
2023/10/10 12:21:21;;;;;;;0.10;0.10;;;;;;;17.62;93.34;100793.19;5005342;28;20430;-54
2023/10/10 12:23:55;;;;;;;0.43;0.20;;;;;;;17.63;93.98;100794.00;5012110;28;20038;-55
2023/10/10 12:26:22;;;;;;;0.63;0.55;;;;;;;17.68;93.51;100799.47;5012233;28;20509;-55
2023/10/10 12:28:54;;;;;;;0.68;0.22;;;;;;;17.58;94.16;100797.47;5011241;28;20108;-54
2023/10/10 12:31:22;;;;;;;1.08;0.43;;;;;;;17.60;93.74;100795.34;5012624;28;20509;-54
2023/10/10 12:33:49;;;;;;;0.32;0.10;;;;;;;17.68;93.92;100796.78;5009459;28;20021;-55
2023/10/10 12:36:28;;;;;;;0.10;0.10;;;;;;;17.71;93.74;100792.72;5004801;28;20036;-55
2023/10/10 12:38:55;;;;;;;0.30;0.30;;;;;;;17.69;93.40;100788.38;5001060;28;20473;-55
2023/10/10 12:41:22;;;;;;;0.30;0.30;;;;;;;17.72;93.20;100787.09;4999276;28;20055;-55
2023/10/10 12:43:48;;;;;;;0.20;0.20;;;;;;;17.69;93.03;100796.50;5005862;28;20084;-55
2023/10/10 12:46:20;;;;;;;0.57;0.35;;;;;;;17.76;93.06;100792.81;4993874;28;20022;-52
2023/10/10 12:48:51;;;;;;;0.30;0.25;;;;;;;17.77;93.67;100789.88;4998437;28;20030;-52
2023/10/10 12:51:19;;;;;;;1.15;0.40;;;;;;;17.78;93.56;100786.09;5002782;28;20113;-53
2023/10/10 12:53:46;;;;;;;0.40;0.40;;;;;;;17.77;93.37;100780.94;4992345;28;20286;-53
2023/10/10 12:56:16;;;;;;;0.95;0.20;;;;;;;17.82;93.65;100786.38;5002938;28;20463;-54
2023/10/10 12:58:51;;;;;;;0.22;0.22;;;;;;;17.85;93.60;100783.97;5002827;28;20045;-54
2023/10/10 13:01:25;;;;;;;0.30;0.30;;;;;;;17.79;93.90;100776.06;5004426;28;20072;-54
2023/10/10 13:03:52;;;;;;;0.88;0.30;;;;;;;17.84;93.42;100790.47;5010140;28;20390;-54
2023/10/10 13:06:22;;;;;;;0.68;0.40;;;;;;;17.94;93.20;100787.06;4992831;28;20033;-54
2023/10/10 13:08:54;;;;;;;0.30;0.25;;;;;;;17.82;94.11;100783.66;5002621;28;20022;-53
2023/10/10 13:11:32;;;;;;;0.57;0.30;;;;;;;17.80;93.05;100793.94;5012185;28;20037;-53
2023/10/10 13:14:09;;;;;;;0.60;0.25;;;;;;;17.83;93.26;100785.31;5013527;28;20486;-53
2023/10/10 13:19:09;;;;;;;0.13;0.10;;;;;;;17.61;90.71;100790.75;5021465;28;20041;-54
2023/10/10 13:21:36;;;;;;;0.20;0.20;;;;;;;17.54;90.47;100785.50;5015895;28;20041;-53
2023/10/10 13:24:13;;;;;;;0.57;0.25;;;;;;;17.37;90.28;100782.88;5015593;28;20022;-54
2023/10/10 13:26:50;;;;;;;0.05;0.05;;;;;;;17.36;89.14;100785.84;5019805;28;20068;-54
2023/10/10 13:29:16;;;;;;;0.03;0.00;;;;;;;17.32;89.03;100792.81;5035418;28;20442;-53
2023/10/10 13:31:47;;;;;;;0.20;0.20;;;;;;;17.02;90.15;100780.53;5035451;28;20528;-53
2023/10/10 13:34:22;;;;;;;0.50;0.20;;;;;;;17.08;89.16;100803.06;5035450;28;20025;-54
2023/10/10 13:36:49;;;;;;;0.20;0.10;;;;;;;16.76;88.78;100800.16;5018108;28;20033;-53
2023/10/10 13:39:17;;;;;;;0.75;0.40;;;;;;;16.84;88.33;100807.88;5011783;28;20038;-57
2023/10/10 13:41:43;;;;;;;0.20;0.20;;;;;;;16.76;88.67;100810.97;5004466;28;20096;-67
2023/10/10 13:44:10;;;;;;;0.20;0.20;;;;;;;16.66;89.48;100806.22;5013509;28;20033;-49
2023/10/10 13:46:37;;;;;;;0.13;0.10;;;;;;;16.59;88.80;100798.28;5010640;28;20046;-49
2023/10/10 13:49:04;;;;;;;0.28;0.28;;;;;;;16.53;88.88;100798.44;4998633;28;20049;-51
2023/10/10 13:51:39;;;;;;;0.50;0.22;;;;;;;16.50;88.35;100799.78;5005983;28;20038;-48
2023/10/10 13:54:05;;;;;;;;;;;;;;;16.53;88.33;100806.56;5016017;28;20034;-51
2023/10/10 13:56:31;;;;;;;1.23;0.30;;;;;;;16.42;88.23;100808.25;5014888;28;19914;-48
2023/10/10 13:59:02;;;;;;;0.70;0.30;;;;;;;16.35;88.38;100808.44;5014681;28;20117;-49
2023/10/10 14:04:04;;;;;;;1.60;0.38;;;;;;;16.28;87.33;100820.47;5013370;28;20379;-51
2023/10/10 14:06:34;;;;;;;1.65;0.68;;;;;;;16.31;84.99;100826.19;4995749;28;20046;-50
2023/10/10 14:09:03;;;;;;;4.07;0.93;;;;;;;16.20;84.25;100829.78;4994986;28;20023;-51
2023/10/10 14:11:32;;;;;;;2.80;0.68;;;;;;;16.02;84.53;100833.50;4995477;28;20101;-50
2023/10/10 14:13:59;;;;;;;3.17;0.70;;;;;;;15.93;83.93;100829.56;4995375;28;20123;-47
2023/10/10 14:16:25;;;;;;;2.53;0.63;;;;;;;15.92;83.49;100827.09;4994994;28;20416;-50
2023/10/10 14:18:52;;;;;;;1.80;0.70;;;;;;;16.03;82.67;100835.13;4994652;28;20104;-47
2023/10/10 14:21:27;;;;;;;3.33;1.20;;;;;;;15.79;83.38;100830.91;5013637;28;20156;-47
2023/10/10 14:24:13;;;;;;;2.33;1.17;;;;;;;15.80;82.59;100829.84;5005435;28;20030;-51
2023/10/10 14:26:43;;;;;;;1.38;0.90;;;;;;;15.68;83.44;100832.59;4995279;28;20043;-47
2023/10/10 14:29:13;;;;;;;2.17;1.02;;;;;;;15.61;83.64;100831.88;4995534;28;20034;-51
2023/10/10 14:31:44;;;;;;;2.33;0.80;;;;;;;15.68;83.06;100839.88;5012506;28;20038;-50
2023/10/10 14:34:19;;;;;;;2.03;0.88;;;;;;;15.68;82.83;100842.56;5013511;28;20026;-49
2023/10/10 14:36:48;;;;;;;3.17;1.10;;;;;;;15.56;82.71;100840.69;5013932;28;20026;-50
2023/10/10 14:39:31;;;;;;;2.45;0.85;;;;;;;15.56;82.62;100840.69;5011289;28;20042;-48
2023/10/10 14:42:01;;;;;;;2.88;1.40;;;;;;;15.48;82.40;100837.53;5012808;28;20141;-49
2023/10/10 14:44:29;;;;;;;3.40;1.10;;;;;;;15.43;82.60;100843.66;5014035;28;20037;-49
2023/10/10 14:46:57;;;;;;;3.92;1.00;;;;;;;15.46;82.75;100845.06;5013821;28;20049;-50
2023/10/10 14:49:30;;;;;;;1.58;0.73;;;;;;;15.46;82.77;100847.75;5010984;28;20081;-51
2023/10/10 14:52:03;;;;;;;3.63;1.10;;;;;;;15.43;82.62;100849.03;5013885;28;20030;-49
2023/10/10 14:54:30;;;;;;;3.65;1.27;;;;;;;15.47;82.34;100849.38;5012924;28;20038;-46
2023/10/10 14:56:57;;;;;;;2.63;1.33;;;;;;;15.49;82.21;100855.34;5011742;28;20026;-50
2023/10/10 14:59:25;;;;;;;2.10;1.02;;;;;;;15.44;82.62;100858.78;5008760;28;20033;-48
2023/10/10 15:01:53;;;;;;;2.42;1.30;;;;;;;15.43;82.81;100853.63;5011876;28;20066;-48
2023/10/10 15:04:22;;;;;;;2.25;1.20;;;;;;;15.48;82.78;100854.53;5013821;28;20026;-51
2023/10/10 15:06:54;;;;;;;3.97;1.67;;;;;;;15.44;82.00;100858.78;5010169;28;20037;-50